sensor_id;sensor_type;location;lat;lon;timestamp;temperature;humidity
23160;DHT22;11748;50.844;4.396;2022-11-15T00:00:57;13.00;99.90
23160;DHT22;11748;50.844;4.396;2022-11-15T00:03:27;12.90;99.90
23160;DHT22;11748;50.844;4.396;2022-11-15T00:05:52;12.80;99.90
23160;DHT22;11748;50.844;4.396;2022-11-15T00:08:18;12.80;99.90
23160;DHT22;11748;50.844;4.396;2022-11-15T00:11:03;12.90;99.90
23160;DHT22;11748;50.844;4.396;2022-11-15T00:13:29;13.00;99.90
23160;DHT22;11748;50.844;4.396;2022-11-15T00:15:59;13.10;99.90
23160;DHT22;11748;50.844;4.396;2022-11-15T00:18:26;13.20;99.90
23160;DHT22;11748;50.844;4.396;2022-11-15T00:20:53;13.20;99.90
23160;DHT22;11748;50.844;4.396;2022-11-15T00:23:18;13.30;99.90
23160;DHT22;11748;50.844;4.396;2022-11-15T00:25:44;13.20;99.90
23160;DHT22;11748;50.844;4.396;2022-11-15T00:28:10;13.10;99.90
23160;DHT22;11748;50.844;4.396;2022-11-15T00:30:35;13.00;99.90
23160;DHT22;11748;50.844;4.396;2022-11-15T00:33:05;13.10;99.90
23160;DHT22;11748;50.844;4.396;2022-11-15T00:35:32;13.10;99.90
23160;DHT22;11748;50.844;4.396;2022-11-15T00:37:59;13.20;99.90
23160;DHT22;11748;50.844;4.396;2022-11-15T00:40:25;13.20;99.90
23160;DHT22;11748;50.844;4.396;2022-11-15T00:42:50;13.20;99.90
23160;DHT22;11748;50.844;4.396;2022-11-15T00:45:16;13.20;99.90
23160;DHT22;11748;50.844;4.396;2022-11-15T00:47:44;13.20;99.90
23160;DHT22;11748;50.844;4.396;2022-11-15T00:50:11;13.30;99.90
23160;DHT22;11748;50.844;4.396;2022-11-15T00:52:36;13.20;99.90
23160;DHT22;11748;50.844;4.396;2022-11-15T00:55:02;13.30;99.90
23160;DHT22;11748;50.844;4.396;2022-11-15T00:57:28;13.30;99.90
23160;DHT22;11748;50.844;4.396;2022-11-15T00:59:53;13.30;99.90
23160;DHT22;11748;50.844;4.396;2022-11-15T01:02:19;13.20;99.90
23160;DHT22;11748;50.844;4.396;2022-11-15T01:04:45;13.30;99.90
23160;DHT22;11748;50.844;4.396;2022-11-15T01:07:10;13.30;99.90
23160;DHT22;11748;50.844;4.396;2022-11-15T01:09:36;13.40;99.90
23160;DHT22;11748;50.844;4.396;2022-11-15T01:12:02;13.40;99.90
23160;DHT22;11748;50.844;4.396;2022-11-15T01:14:27;13.40;99.90
23160;DHT22;11748;50.844;4.396;2022-11-15T01:16:53;13.30;99.90
23160;DHT22;11748;50.844;4.396;2022-11-15T01:19:19;13.30;99.90
23160;DHT22;11748;50.844;4.396;2022-11-15T01:21:44;13.40;99.90
23160;DHT22;11748;50.844;4.396;2022-11-15T01:24:13;13.40;99.90
23160;DHT22;11748;50.844;4.396;2022-11-15T01:26:39;13.50;99.90
23160;DHT22;11748;50.844;4.396;2022-11-15T01:29:05;13.40;99.90
23160;DHT22;11748;50.844;4.396;2022-11-15T01:31:30;13.40;99.90
23160;DHT22;11748;50.844;4.396;2022-11-15T01:33:56;13.40;99.90
23160;DHT22;11748;50.844;4.396;2022-11-15T01:36:22;13.40;99.90
23160;DHT22;11748;50.844;4.396;2022-11-15T01:38:55;13.40;99.90
23160;DHT22;11748;50.844;4.396;2022-11-15T01:41:23;13.30;99.90
23160;DHT22;11748;50.844;4.396;2022-11-15T01:43:52;13.40;99.90
23160;DHT22;11748;50.844;4.396;2022-11-15T01:46:26;13.10;99.90
23160;DHT22;11748;50.844;4.396;2022-11-15T01:48:53;13.20;99.90
23160;DHT22;11748;50.844;4.396;2022-11-15T01:51:23;13.30;99.90
23160;DHT22;11748;50.844;4.396;2022-11-15T01:53:53;13.10;99.90
23160;DHT22;11748;50.844;4.396;2022-11-15T01:56:24;12.90;99.90
23160;DHT22;11748;50.844;4.396;2022-11-15T01:58:51;13.00;99.90
23160;DHT22;11748;50.844;4.396;2022-11-15T02:01:19;13.00;99.90
23160;DHT22;11748;50.844;4.396;2022-11-15T02:04:05;13.10;99.90
23160;DHT22;11748;50.844;4.396;2022-11-15T02:06:35;13.10;99.90
23160;DHT22;11748;50.844;4.396;2022-11-15T02:09:02;13.10;99.90
23160;DHT22;11748;50.844;4.396;2022-11-15T02:11:28;13.00;99.90
23160;DHT22;11748;50.844;4.396;2022-11-15T02:13:55;13.00;99.90
23160;DHT22;11748;50.844;4.396;2022-11-15T02:17:41;12.90;99.90
23160;DHT22;11748;50.844;4.396;2022-11-15T02:32:35;13.10;99.90
23160;DHT22;11748;50.844;4.396;2022-11-15T02:37:56;12.90;99.90
23160;DHT22;11748;50.844;4.396;2022-11-15T02:40:50;12.90;99.90
23160;DHT22;11748;50.844;4.396;2022-11-15T02:43:38;12.80;99.90
23160;DHT22;11748;50.844;4.396;2022-11-15T02:46:33;12.80;99.90
23160;DHT22;11748;50.844;4.396;2022-11-15T02:49:19;12.80;99.90
23160;DHT22;11748;50.844;4.396;2022-11-15T02:51:47;12.70;99.90
23160;DHT22;11748;50.844;4.396;2022-11-15T02:54:25;12.80;99.90
23160;DHT22;11748;50.844;4.396;2022-11-15T02:56:54;13.00;99.90
23160;DHT22;11748;50.844;4.396;2022-11-15T03:00:08;12.90;99.90
23160;DHT22;11748;50.844;4.396;2022-11-15T03:03:05;13.00;99.90
23160;DHT22;11748;50.844;4.396;2022-11-15T03:06:09;13.10;99.90
23160;DHT22;11748;50.844;4.396;2022-11-15T03:11:15;13.30;99.90
23160;DHT22;11748;50.844;4.396;2022-11-15T03:13:57;13.30;99.90
23160;DHT22;11748;50.844;4.396;2022-11-15T03:17:05;13.40;99.90
23160;DHT22;11748;50.844;4.396;2022-11-15T03:19:34;13.30;99.90
23160;DHT22;11748;50.844;4.396;2022-11-15T03:22:04;12.90;99.90
23160;DHT22;11748;50.844;4.396;2022-11-15T03:24:36;12.80;99.90
23160;DHT22;11748;50.844;4.396;2022-11-15T03:27:03;12.70;99.90
23160;DHT22;11748;50.844;4.396;2022-11-15T03:29:37;12.70;99.90
23160;DHT22;11748;50.844;4.396;2022-11-15T03:32:11;12.60;99.90
23160;DHT22;11748;50.844;4.396;2022-11-15T03:34:45;12.70;99.90
23160;DHT22;11748;50.844;4.396;2022-11-15T03:37:14;12.80;99.90
23160;DHT22;11748;50.844;4.396;2022-11-15T03:39:42;12.80;99.90
23160;DHT22;11748;50.844;4.396;2022-11-15T03:50:42;12.80;99.90
23160;DHT22;11748;50.844;4.396;2022-11-15T03:53:09;12.80;99.90
23160;DHT22;11748;50.844;4.396;2022-11-15T03:55:35;12.90;99.90
23160;DHT22;11748;50.844;4.396;2022-11-15T03:58:01;12.80;99.90
23160;DHT22;11748;50.844;4.396;2022-11-15T04:00:28;13.00;99.90
23160;DHT22;11748;50.844;4.396;2022-11-15T04:02:53;13.00;99.90
23160;DHT22;11748;50.844;4.396;2022-11-15T04:05:19;12.80;99.90
23160;DHT22;11748;50.844;4.396;2022-11-15T04:07:45;13.00;99.90
23160;DHT22;11748;50.844;4.396;2022-11-15T04:10:11;12.90;99.90
23160;DHT22;11748;50.844;4.396;2022-11-15T04:12:40;13.10;99.90
23160;DHT22;11748;50.844;4.396;2022-11-15T04:15:10;13.00;99.90
23160;DHT22;11748;50.844;4.396;2022-11-15T04:17:48;13.00;99.90
23160;DHT22;11748;50.844;4.396;2022-11-15T04:20:18;13.10;99.90
23160;DHT22;11748;50.844;4.396;2022-11-15T04:23:05;13.00;99.90
23160;DHT22;11748;50.844;4.396;2022-11-15T04:25:53;12.80;99.90
23160;DHT22;11748;50.844;4.396;2022-11-15T04:28:20;12.70;99.90
23160;DHT22;11748;50.844;4.396;2022-11-15T04:30:45;12.80;99.90
23160;DHT22;11748;50.844;4.396;2022-11-15T04:33:11;12.70;99.90
23160;DHT22;11748;50.844;4.396;2022-11-15T04:35:37;12.90;99.90
23160;DHT22;11748;50.844;4.396;2022-11-15T04:38:04;12.90;99.90
23160;DHT22;11748;50.844;4.396;2022-11-15T04:40:30;13.00;99.90
23160;DHT22;11748;50.844;4.396;2022-11-15T04:42:56;12.90;99.90
23160;DHT22;11748;50.844;4.396;2022-11-15T04:45:21;13.00;99.90
23160;DHT22;11748;50.844;4.396;2022-11-15T04:47:47;13.00;99.90
23160;DHT22;11748;50.844;4.396;2022-11-15T04:50:14;12.90;99.90
23160;DHT22;11748;50.844;4.396;2022-11-15T04:52:49;12.80;99.90
23160;DHT22;11748;50.844;4.396;2022-11-15T04:55:15;12.80;99.90
23160;DHT22;11748;50.844;4.396;2022-11-15T04:57:41;12.70;99.90
23160;DHT22;11748;50.844;4.396;2022-11-15T05:00:09;12.70;99.90
23160;DHT22;11748;50.844;4.396;2022-11-15T05:02:35;12.60;99.90
23160;DHT22;11748;50.844;4.396;2022-11-15T05:05:20;12.70;99.90
23160;DHT22;11748;50.844;4.396;2022-11-15T05:07:46;12.70;99.90
23160;DHT22;11748;50.844;4.396;2022-11-15T05:10:12;12.70;99.90
23160;DHT22;11748;50.844;4.396;2022-11-15T05:12:38;12.60;99.90
23160;DHT22;11748;50.844;4.396;2022-11-15T05:15:04;12.60;99.90
23160;DHT22;11748;50.844;4.396;2022-11-15T05:17:30;12.50;99.90
23160;DHT22;11748;50.844;4.396;2022-11-15T05:19:55;12.50;99.90
23160;DHT22;11748;50.844;4.396;2022-11-15T05:22:21;12.50;99.90
23160;DHT22;11748;50.844;4.396;2022-11-15T05:24:47;12.50;99.90
23160;DHT22;11748;50.844;4.396;2022-11-15T05:27:13;12.40;99.90
23160;DHT22;11748;50.844;4.396;2022-11-15T05:29:38;12.40;99.90
23160;DHT22;11748;50.844;4.396;2022-11-15T05:32:08;12.40;99.90
23160;DHT22;11748;50.844;4.396;2022-11-15T05:34:34;12.30;99.90
23160;DHT22;11748;50.844;4.396;2022-11-15T05:37:00;12.20;99.90
23160;DHT22;11748;50.844;4.396;2022-11-15T05:39:26;12.30;99.90
23160;DHT22;11748;50.844;4.396;2022-11-15T05:42:10;12.20;99.90
23160;DHT22;11748;50.844;4.396;2022-11-15T05:44:37;12.20;99.90
23160;DHT22;11748;50.844;4.396;2022-11-15T05:47:05;12.10;99.90
23160;DHT22;11748;50.844;4.396;2022-11-15T05:49:35;12.00;99.90
23160;DHT22;11748;50.844;4.396;2022-11-15T05:52:04;12.00;99.90
23160;DHT22;11748;50.844;4.396;2022-11-15T05:54:31;11.90;99.90
23160;DHT22;11748;50.844;4.396;2022-11-15T05:56:57;12.00;99.90
23160;DHT22;11748;50.844;4.396;2022-11-15T05:59:23;11.90;99.90
23160;DHT22;11748;50.844;4.396;2022-11-15T06:01:49;11.90;99.90
23160;DHT22;11748;50.844;4.396;2022-11-15T06:04:15;12.00;99.90
23160;DHT22;11748;50.844;4.396;2022-11-15T06:06:40;12.00;99.90
23160;DHT22;11748;50.844;4.396;2022-11-15T06:09:06;12.00;99.90
23160;DHT22;11748;50.844;4.396;2022-11-15T06:11:32;11.90;99.90
23160;DHT22;11748;50.844;4.396;2022-11-15T06:13:57;11.90;99.90
23160;DHT22;11748;50.844;4.396;2022-11-15T06:16:23;11.80;99.90
23160;DHT22;11748;50.844;4.396;2022-11-15T06:18:49;11.80;99.90
23160;DHT22;11748;50.844;4.396;2022-11-15T06:21:14;11.70;99.90
23160;DHT22;11748;50.844;4.396;2022-11-15T06:23:40;11.70;99.90
23160;DHT22;11748;50.844;4.396;2022-11-15T06:26:06;11.70;99.90
23160;DHT22;11748;50.844;4.396;2022-11-15T06:28:32;11.60;99.90
23160;DHT22;11748;50.844;4.396;2022-11-15T06:31:09;11.60;99.90
23160;DHT22;11748;50.844;4.396;2022-11-15T06:33:35;11.60;99.90
23160;DHT22;11748;50.844;4.396;2022-11-15T06:36:05;11.60;99.90
23160;DHT22;11748;50.844;4.396;2022-11-15T06:38:30;11.60;99.90
23160;DHT22;11748;50.844;4.396;2022-11-15T06:41:07;11.50;99.90
23160;DHT22;11748;50.844;4.396;2022-11-15T06:43:34;11.40;99.90
23160;DHT22;11748;50.844;4.396;2022-11-15T06:46:01;11.40;99.90
23160;DHT22;11748;50.844;4.396;2022-11-15T06:48:33;11.30;99.90
23160;DHT22;11748;50.844;4.396;2022-11-15T06:51:02;11.40;99.90
23160;DHT22;11748;50.844;4.396;2022-11-15T06:53:29;11.40;99.90
23160;DHT22;11748;50.844;4.396;2022-11-15T06:56:03;11.40;99.90
23160;DHT22;11748;50.844;4.396;2022-11-15T06:58:36;11.40;99.90
23160;DHT22;11748;50.844;4.396;2022-11-15T07:01:07;11.40;99.90
23160;DHT22;11748;50.844;4.396;2022-11-15T07:03:40;11.30;99.90
23160;DHT22;11748;50.844;4.396;2022-11-15T07:06:08;11.30;99.90
23160;DHT22;11748;50.844;4.396;2022-11-15T07:08:35;11.30;99.90
23160;DHT22;11748;50.844;4.396;2022-11-15T07:11:03;11.30;99.90
23160;DHT22;11748;50.844;4.396;2022-11-15T07:13:30;11.30;99.90
23160;DHT22;11748;50.844;4.396;2022-11-15T07:16:02;11.30;99.90
23160;DHT22;11748;50.844;4.396;2022-11-15T07:18:28;11.30;99.90
23160;DHT22;11748;50.844;4.396;2022-11-15T07:20:53;11.30;99.90
23160;DHT22;11748;50.844;4.396;2022-11-15T07:23:19;11.30;99.90
23160;DHT22;11748;50.844;4.396;2022-11-15T07:25:45;11.30;99.90
23160;DHT22;11748;50.844;4.396;2022-11-15T07:28:10;11.30;99.90
23160;DHT22;11748;50.844;4.396;2022-11-15T07:30:36;11.30;99.90
23160;DHT22;11748;50.844;4.396;2022-11-15T07:33:02;11.30;99.90
23160;DHT22;11748;50.844;4.396;2022-11-15T07:35:28;11.40;99.90
23160;DHT22;11748;50.844;4.396;2022-11-15T07:37:59;11.30;99.90
23160;DHT22;11748;50.844;4.396;2022-11-15T07:40:27;11.30;99.90
23160;DHT22;11748;50.844;4.396;2022-11-15T07:43:03;11.30;99.90
23160;DHT22;11748;50.844;4.396;2022-11-15T07:45:29;11.40;99.90
23160;DHT22;11748;50.844;4.396;2022-11-15T07:47:56;11.40;99.90
23160;DHT22;11748;50.844;4.396;2022-11-15T07:50:23;11.40;99.90
23160;DHT22;11748;50.844;4.396;2022-11-15T07:52:57;11.40;99.90
23160;DHT22;11748;50.844;4.396;2022-11-15T07:55:25;11.30;99.90
23160;DHT22;11748;50.844;4.396;2022-11-15T07:57:51;11.20;99.90
23160;DHT22;11748;50.844;4.396;2022-11-15T08:00:18;11.30;99.90
23160;DHT22;11748;50.844;4.396;2022-11-15T08:02:44;11.30;99.90
23160;DHT22;11748;50.844;4.396;2022-11-15T08:05:10;11.40;99.90
23160;DHT22;11748;50.844;4.396;2022-11-15T08:07:36;11.40;99.90
23160;DHT22;11748;50.844;4.396;2022-11-15T08:10:04;11.40;99.90
23160;DHT22;11748;50.844;4.396;2022-11-15T08:12:31;11.40;99.90
23160;DHT22;11748;50.844;4.396;2022-11-15T08:14:58;11.40;99.90
23160;DHT22;11748;50.844;4.396;2022-11-15T08:17:24;11.40;99.90
23160;DHT22;11748;50.844;4.396;2022-11-15T08:19:50;11.50;99.90
23160;DHT22;11748;50.844;4.396;2022-11-15T08:22:17;11.50;99.90
23160;DHT22;11748;50.844;4.396;2022-11-15T08:24:44;11.50;99.90
23160;DHT22;11748;50.844;4.396;2022-11-15T08:27:10;11.50;99.90
23160;DHT22;11748;50.844;4.396;2022-11-15T08:29:43;11.60;99.90
23160;DHT22;11748;50.844;4.396;2022-11-15T08:32:10;11.50;99.90
23160;DHT22;11748;50.844;4.396;2022-11-15T08:34:37;11.50;99.90
23160;DHT22;11748;50.844;4.396;2022-11-15T08:37:06;11.50;99.90
23160;DHT22;11748;50.844;4.396;2022-11-15T08:39:31;11.60;99.90
23160;DHT22;11748;50.844;4.396;2022-11-15T08:41:57;11.60;99.90
23160;DHT22;11748;50.844;4.396;2022-11-15T08:44:23;11.60;99.90
23160;DHT22;11748;50.844;4.396;2022-11-15T08:46:49;11.60;99.90
23160;DHT22;11748;50.844;4.396;2022-11-15T08:49:15;11.70;99.90
23160;DHT22;11748;50.844;4.396;2022-11-15T08:51:41;11.80;99.90
23160;DHT22;11748;50.844;4.396;2022-11-15T08:54:07;11.70;99.90
23160;DHT22;11748;50.844;4.396;2022-11-15T08:56:32;11.70;99.90
23160;DHT22;11748;50.844;4.396;2022-11-15T08:58:58;11.70;99.90
23160;DHT22;11748;50.844;4.396;2022-11-15T09:01:24;11.70;99.90
23160;DHT22;11748;50.844;4.396;2022-11-15T09:03:50;11.80;99.90
23160;DHT22;11748;50.844;4.396;2022-11-15T09:06:16;11.80;99.90
23160;DHT22;11748;50.844;4.396;2022-11-15T09:08:42;11.80;99.90
23160;DHT22;11748;50.844;4.396;2022-11-15T09:11:10;11.90;99.90
23160;DHT22;11748;50.844;4.396;2022-11-15T09:13:36;11.90;99.90
23160;DHT22;11748;50.844;4.396;2022-11-15T09:16:05;12.00;99.90
23160;DHT22;11748;50.844;4.396;2022-11-15T09:18:31;12.00;99.90
23160;DHT22;11748;50.844;4.396;2022-11-15T09:20:58;12.10;99.90
23160;DHT22;11748;50.844;4.396;2022-11-15T09:23:24;12.20;99.90
23160;DHT22;11748;50.844;4.396;2022-11-15T09:25:50;12.10;99.90
23160;DHT22;11748;50.844;4.396;2022-11-15T09:28:16;12.10;99.90
23160;DHT22;11748;50.844;4.396;2022-11-15T09:30:42;12.20;99.90
23160;DHT22;11748;50.844;4.396;2022-11-15T09:33:12;12.20;99.90
23160;DHT22;11748;50.844;4.396;2022-11-15T09:35:37;12.30;99.90
23160;DHT22;11748;50.844;4.396;2022-11-15T09:38:04;12.40;99.90
23160;DHT22;11748;50.844;4.396;2022-11-15T09:40:31;12.30;99.90
23160;DHT22;11748;50.844;4.396;2022-11-15T09:46:15;12.40;99.90
23160;DHT22;11748;50.844;4.396;2022-11-15T09:48:58;12.50;99.90
23160;DHT22;11748;50.844;4.396;2022-11-15T09:51:32;12.50;99.90
23160;DHT22;11748;50.844;4.396;2022-11-15T09:57:23;12.60;99.90
23160;DHT22;11748;50.844;4.396;2022-11-15T10:05:43;12.60;99.90
23160;DHT22;11748;50.844;4.396;2022-11-15T10:10:57;12.70;99.90
23160;DHT22;11748;50.844;4.396;2022-11-15T10:13:26;12.70;99.90
23160;DHT22;11748;50.844;4.396;2022-11-15T10:15:56;12.80;99.90
23160;DHT22;11748;50.844;4.396;2022-11-15T10:18:43;12.80;99.90
23160;DHT22;11748;50.844;4.396;2022-11-15T10:21:21;12.90;99.90
23160;DHT22;11748;50.844;4.396;2022-11-15T10:23:50;12.90;99.90
23160;DHT22;11748;50.844;4.396;2022-11-15T10:26:17;13.00;99.90
23160;DHT22;11748;50.844;4.396;2022-11-15T10:28:44;13.00;99.90
23160;DHT22;11748;50.844;4.396;2022-11-15T10:31:25;13.10;99.90
23160;DHT22;11748;50.844;4.396;2022-11-15T10:33:56;13.10;99.90
23160;DHT22;11748;50.844;4.396;2022-11-15T10:36:25;13.00;99.90
23160;DHT22;11748;50.844;4.396;2022-11-15T10:41:28;13.20;99.90
23160;DHT22;11748;50.844;4.396;2022-11-15T10:44:23;13.20;99.90
23160;DHT22;11748;50.844;4.396;2022-11-15T10:47:22;13.20;99.90
23160;DHT22;11748;50.844;4.396;2022-11-15T10:50:03;13.30;99.90
23160;DHT22;11748;50.844;4.396;2022-11-15T10:52:30;13.30;99.90
23160;DHT22;11748;50.844;4.396;2022-11-15T10:55:22;13.40;99.90
23160;DHT22;11748;50.844;4.396;2022-11-15T10:57:54;13.20;99.90
23160;DHT22;11748;50.844;4.396;2022-11-15T11:03:00;13.50;99.90
23160;DHT22;11748;50.844;4.396;2022-11-15T11:05:35;13.60;99.90
23160;DHT22;11748;50.844;4.396;2022-11-15T11:10:31;13.70;99.90
23160;DHT22;11748;50.844;4.396;2022-11-15T11:13:26;13.80;99.90
23160;DHT22;11748;50.844;4.396;2022-11-15T11:19:04;14.10;99.90
23160;DHT22;11748;50.844;4.396;2022-11-15T11:22:05;14.20;99.90
23160;DHT22;11748;50.844;4.396;2022-11-15T11:33:37;14.30;99.90
23160;DHT22;11748;50.844;4.396;2022-11-15T11:36:18;14.30;99.90
23160;DHT22;11748;50.844;4.396;2022-11-15T11:44:35;14.20;99.90
23160;DHT22;11748;50.844;4.396;2022-11-15T11:47:11;14.30;99.90
23160;DHT22;11748;50.844;4.396;2022-11-15T11:50:14;14.30;99.90
23160;DHT22;11748;50.844;4.396;2022-11-15T11:52:52;14.40;99.90
23160;DHT22;11748;50.844;4.396;2022-11-15T12:00:33;14.80;99.90
23160;DHT22;11748;50.844;4.396;2022-11-15T12:03:02;14.80;99.90
23160;DHT22;11748;50.844;4.396;2022-11-15T12:05:35;14.80;99.90
23160;DHT22;11748;50.844;4.396;2022-11-15T12:11:12;14.70;99.90
23160;DHT22;11748;50.844;4.396;2022-11-15T12:13:40;14.70;99.90
23160;DHT22;11748;50.844;4.396;2022-11-15T12:16:17;14.70;99.90
23160;DHT22;11748;50.844;4.396;2022-11-15T12:18:48;14.70;99.90
23160;DHT22;11748;50.844;4.396;2022-11-15T12:27:41;14.70;99.90
23160;DHT22;11748;50.844;4.396;2022-11-15T12:30:11;14.80;99.90
23160;DHT22;11748;50.844;4.396;2022-11-15T12:32:40;14.80;99.90
23160;DHT22;11748;50.844;4.396;2022-11-15T12:35:39;14.90;99.90
23160;DHT22;11748;50.844;4.396;2022-11-15T12:38:10;14.50;99.90
23160;DHT22;11748;50.844;4.396;2022-11-15T12:40:38;14.70;99.90
23160;DHT22;11748;50.844;4.396;2022-11-15T12:45:38;14.80;99.90
23160;DHT22;11748;50.844;4.396;2022-11-15T12:51:03;14.90;99.90
23160;DHT22;11748;50.844;4.396;2022-11-15T12:53:31;14.90;99.90
23160;DHT22;11748;50.844;4.396;2022-11-15T12:58:58;15.00;99.90
23160;DHT22;11748;50.844;4.396;2022-11-15T13:06:55;15.30;99.90
23160;DHT22;11748;50.844;4.396;2022-11-15T13:15:10;15.10;99.90
23160;DHT22;11748;50.844;4.396;2022-11-15T13:17:54;15.20;99.90
23160;DHT22;11748;50.844;4.396;2022-11-15T13:22:50;15.40;99.90
23160;DHT22;11748;50.844;4.396;2022-11-15T13:25:45;15.30;99.90
23160;DHT22;11748;50.844;4.396;2022-11-15T13:30:54;15.30;99.90
23160;DHT22;11748;50.844;4.396;2022-11-15T13:33:33;15.20;99.90
23160;DHT22;11748;50.844;4.396;2022-11-15T13:36:06;15.10;99.90
23160;DHT22;11748;50.844;4.396;2022-11-15T13:38:34;15.10;99.90
23160;DHT22;11748;50.844;4.396;2022-11-15T13:43:42;15.10;99.90
23160;DHT22;11748;50.844;4.396;2022-11-15T13:46:17;14.90;99.90
23160;DHT22;11748;50.844;4.396;2022-11-15T13:48:48;14.90;99.90
23160;DHT22;11748;50.844;4.396;2022-11-15T13:56:43;14.90;99.90
23160;DHT22;11748;50.844;4.396;2022-11-15T14:01:45;15.10;99.90
23160;DHT22;11748;50.844;4.396;2022-11-15T14:04:13;15.00;99.90
23160;DHT22;11748;50.844;4.396;2022-11-15T14:06:55;14.90;99.90
23160;DHT22;11748;50.844;4.396;2022-11-15T14:09:34;15.00;99.90
23160;DHT22;11748;50.844;4.396;2022-11-15T14:12:19;15.00;99.90
23160;DHT22;11748;50.844;4.396;2022-11-15T14:14:47;15.00;99.90
23160;DHT22;11748;50.844;4.396;2022-11-15T14:19:50;14.90;99.90
23160;DHT22;11748;50.844;4.396;2022-11-15T14:22:24;14.80;99.90
23160;DHT22;11748;50.844;4.396;2022-11-15T14:25:13;14.80;99.90
23160;DHT22;11748;50.844;4.396;2022-11-15T14:30:29;14.90;99.90
23160;DHT22;11748;50.844;4.396;2022-11-15T14:32:55;14.80;99.90
23160;DHT22;11748;50.844;4.396;2022-11-15T14:35:24;14.70;99.90
23160;DHT22;11748;50.844;4.396;2022-11-15T14:37:50;14.70;99.90
23160;DHT22;11748;50.844;4.396;2022-11-15T14:40:19;14.60;99.90
23160;DHT22;11748;50.844;4.396;2022-11-15T14:42:46;14.70;99.90
23160;DHT22;11748;50.844;4.396;2022-11-15T14:45:18;14.70;99.90
23160;DHT22;11748;50.844;4.396;2022-11-15T14:47:44;14.70;99.90
23160;DHT22;11748;50.844;4.396;2022-11-15T14:50:22;14.70;99.90
23160;DHT22;11748;50.844;4.396;2022-11-15T14:52:53;14.70;99.90
23160;DHT22;11748;50.844;4.396;2022-11-15T14:55:35;14.70;99.90
23160;DHT22;11748;50.844;4.396;2022-11-15T14:58:06;14.60;99.90
23160;DHT22;11748;50.844;4.396;2022-11-15T15:00:39;14.60;99.90
23160;DHT22;11748;50.844;4.396;2022-11-15T15:03:05;14.60;99.90
23160;DHT22;11748;50.844;4.396;2022-11-15T15:05:32;14.70;99.90
23160;DHT22;11748;50.844;4.396;2022-11-15T15:07:58;14.70;99.90
23160;DHT22;11748;50.844;4.396;2022-11-15T15:10:34;14.60;99.90
23160;DHT22;11748;50.844;4.396;2022-11-15T15:13:00;14.60;99.90
23160;DHT22;11748;50.844;4.396;2022-11-15T15:15:37;14.60;99.90
23160;DHT22;11748;50.844;4.396;2022-11-15T15:18:04;14.50;99.90
23160;DHT22;11748;50.844;4.396;2022-11-15T15:20:31;14.50;99.90
23160;DHT22;11748;50.844;4.396;2022-11-15T15:22:58;14.50;99.90
23160;DHT22;11748;50.844;4.396;2022-11-15T15:25:33;14.50;99.90
23160;DHT22;11748;50.844;4.396;2022-11-15T15:28:00;14.50;99.90
23160;DHT22;11748;50.844;4.396;2022-11-15T15:30:31;14.50;99.90
23160;DHT22;11748;50.844;4.396;2022-11-15T15:32:56;14.40;99.90
23160;DHT22;11748;50.844;4.396;2022-11-15T15:35:30;14.40;99.90
23160;DHT22;11748;50.844;4.396;2022-11-15T15:37:57;14.30;99.90
23160;DHT22;11748;50.844;4.396;2022-11-15T15:40:28;14.20;99.90
23160;DHT22;11748;50.844;4.396;2022-11-15T15:42:54;14.20;99.90
23160;DHT22;11748;50.844;4.396;2022-11-15T15:45:20;14.20;99.90
23160;DHT22;11748;50.844;4.396;2022-11-15T15:47:46;14.20;99.90
23160;DHT22;11748;50.844;4.396;2022-11-15T15:50:25;14.10;99.90
23160;DHT22;11748;50.844;4.396;2022-11-15T15:52:52;14.10;99.90
23160;DHT22;11748;50.844;4.396;2022-11-15T15:55:19;14.10;99.90
23160;DHT22;11748;50.844;4.396;2022-11-15T15:57:45;14.10;99.90
23160;DHT22;11748;50.844;4.396;2022-11-15T16:00:11;14.10;99.90
23160;DHT22;11748;50.844;4.396;2022-11-15T16:02:38;14.00;99.90
23160;DHT22;11748;50.844;4.396;2022-11-15T16:05:03;14.00;99.90
23160;DHT22;11748;50.844;4.396;2022-11-15T16:07:29;14.00;99.90
23160;DHT22;11748;50.844;4.396;2022-11-15T16:09:55;13.90;99.90
23160;DHT22;11748;50.844;4.396;2022-11-15T16:12:29;14.00;99.90
23160;DHT22;11748;50.844;4.396;2022-11-15T16:14:55;13.90;99.90
23160;DHT22;11748;50.844;4.396;2022-11-15T16:17:23;13.90;99.90
23160;DHT22;11748;50.844;4.396;2022-11-15T16:19:50;13.90;99.90
23160;DHT22;11748;50.844;4.396;2022-11-15T16:22:16;13.90;99.90
23160;DHT22;11748;50.844;4.396;2022-11-15T16:24:41;13.90;99.90
23160;DHT22;11748;50.844;4.396;2022-11-15T16:27:16;13.90;99.90
23160;DHT22;11748;50.844;4.396;2022-11-15T16:29:42;13.80;99.90
23160;DHT22;11748;50.844;4.396;2022-11-15T16:32:08;13.80;99.90
23160;DHT22;11748;50.844;4.396;2022-11-15T16:34:34;13.80;99.90
23160;DHT22;11748;50.844;4.396;2022-11-15T16:37:00;13.80;99.90
23160;DHT22;11748;50.844;4.396;2022-11-15T16:39:26;13.80;99.90
23160;DHT22;11748;50.844;4.396;2022-11-15T16:41:53;13.80;99.90
23160;DHT22;11748;50.844;4.396;2022-11-15T16:44:19;13.80;99.90
23160;DHT22;11748;50.844;4.396;2022-11-15T16:46:44;13.80;99.90
23160;DHT22;11748;50.844;4.396;2022-11-15T16:49:16;13.90;99.90
23160;DHT22;11748;50.844;4.396;2022-11-15T16:51:45;13.90;99.90
23160;DHT22;11748;50.844;4.396;2022-11-15T16:54:11;13.90;99.90
23160;DHT22;11748;50.844;4.396;2022-11-15T16:56:38;13.90;99.90
23160;DHT22;11748;50.844;4.396;2022-11-15T16:59:04;13.90;99.90
23160;DHT22;11748;50.844;4.396;2022-11-15T17:01:36;13.90;99.90
23160;DHT22;11748;50.844;4.396;2022-11-15T17:04:03;14.00;99.90
23160;DHT22;11748;50.844;4.396;2022-11-15T17:06:38;13.90;99.90
23160;DHT22;11748;50.844;4.396;2022-11-15T17:09:05;13.90;99.90
23160;DHT22;11748;50.844;4.396;2022-11-15T17:11:31;13.80;99.90
23160;DHT22;11748;50.844;4.396;2022-11-15T17:13:58;13.80;99.90
23160;DHT22;11748;50.844;4.396;2022-11-15T17:16:24;13.80;99.90
23160;DHT22;11748;50.844;4.396;2022-11-15T17:18:51;13.90;99.90
23160;DHT22;11748;50.844;4.396;2022-11-15T17:21:19;13.90;99.90
23160;DHT22;11748;50.844;4.396;2022-11-15T17:23:45;13.90;99.90
23160;DHT22;11748;50.844;4.396;2022-11-15T17:26:13;13.90;99.90
23160;DHT22;11748;50.844;4.396;2022-11-15T17:28:39;14.00;99.90
23160;DHT22;11748;50.844;4.396;2022-11-15T17:31:09;14.00;99.90
23160;DHT22;11748;50.844;4.396;2022-11-15T17:33:36;14.00;99.90
23160;DHT22;11748;50.844;4.396;2022-11-15T17:36:04;14.10;99.90
23160;DHT22;11748;50.844;4.396;2022-11-15T17:38:31;14.10;99.90
23160;DHT22;11748;50.844;4.396;2022-11-15T17:41:14;14.10;99.90
23160;DHT22;11748;50.844;4.396;2022-11-15T17:43:40;14.00;99.90
23160;DHT22;11748;50.844;4.396;2022-11-15T17:46:11;14.00;99.90
23160;DHT22;11748;50.844;4.396;2022-11-15T17:48:37;13.80;99.90
23160;DHT22;11748;50.844;4.396;2022-11-15T17:51:05;13.80;99.90